Time;durP1;ratioP1;P1;durP2;ratioP2;P2;SDS_P1;SDS_P2;PMS_P1;PMS_P2;Temp;Humidity;BMP_temperature;BMP_pressure;BME280_temperature;BME280_humidity;BME280_pressure;Samples;Min_cycle;Max_cycle;Signal;HPM_P1;HPM_P2
2023/11/18 00:01:20;;;;;;;41.00;8.95;;;9.70;99.90;;;;;;4987351;28;20030;-85
2023/11/18 00:03:45;;;;;;;39.78;8.48;;;9.60;99.90;;;;;;4971508;28;20038;-84
2023/11/18 00:06:11;;;;;;;33.40;7.68;;;9.60;99.90;;;;;;4987381;28;20109;-85
2023/11/18 00:08:36;;;;;;;39.90;7.47;;;9.60;99.90;;;;;;4987386;28;20026;-85
2023/11/18 00:11:02;;;;;;;35.95;8.27;;;9.60;99.90;;;;;;4987728;28;20138;-85
2023/11/18 00:13:28;;;;;;;37.47;8.95;;;9.60;99.90;;;;;;4987091;28;20504;-85
2023/11/18 00:15:54;;;;;;;32.65;8.38;;;9.70;99.90;;;;;;4987560;28;20038;-85
2023/11/18 00:18:20;;;;;;;32.33;8.52;;;9.70;99.90;;;;;;4987445;28;20034;-85
2023/11/18 00:20:45;;;;;;;34.78;8.70;;;9.60;99.90;;;;;;4987101;28;20050;-86
2023/11/18 00:23:11;;;;;;;35.22;8.27;;;9.60;99.90;;;;;;4971108;28;20022;-86
2023/11/18 00:25:39;;;;;;;32.75;9.25;;;9.70;99.90;;;;;;4987105;28;20027;-85
2023/11/18 00:28:07;;;;;;;34.70;8.05;;;9.70;99.90;;;;;;4987275;28;20094;-85
2023/11/18 00:30:33;;;;;;;28.45;8.70;;;9.60;99.90;;;;;;4986896;28;20027;-85
2023/11/18 00:32:58;;;;;;;35.95;8.90;;;9.90;99.90;;;;;;4988124;28;20058;-85
2023/11/18 00:35:24;;;;;;;35.17;8.77;;;9.60;99.80;;;;;;4988467;28;20088;-85
2023/11/18 00:37:50;;;;;;;37.67;9.43;;;9.60;99.90;;;;;;4988182;28;20038;-86
2023/11/18 00:40:17;;;;;;;28.38;9.07;;;9.60;99.80;;;;;;4986491;28;20042;-86
2023/11/18 00:42:45;;;;;;;39.35;9.00;;;9.70;99.90;;;;;;4987045;28;20035;-85
2023/11/18 00:45:12;;;;;;;23.10;8.57;;;9.80;99.90;;;;;;4986970;28;20046;-86
2023/11/18 00:47:38;;;;;;;29.70;8.65;;;9.60;99.90;;;;;;4986965;28;20050;-85
2023/11/18 00:50:08;;;;;;;22.20;7.30;;;9.60;99.80;;;;;;4986959;28;20086;-87
2023/11/18 00:52:33;;;;;;;26.45;8.38;;;9.60;99.90;;;;;;4988013;28;20042;-85
2023/11/18 00:55:00;;;;;;;34.30;9.05;;;9.70;99.90;;;;;;4985981;28;20475;-85
2023/11/18 00:57:26;;;;;;;34.03;8.43;;;9.70;99.90;;;;;;4986602;28;20127;-85
2023/11/18 00:59:52;;;;;;;26.85;8.10;;;9.90;99.90;;;;;;4986471;28;20031;-85
2023/11/18 01:02:18;;;;;;;28.95;8.13;;;9.70;99.90;;;;;;4986602;28;20027;-86
2023/11/18 01:04:45;;;;;;;27.42;8.60;;;9.70;99.90;;;;;;4986596;28;20026;-85
2023/11/18 01:07:11;;;;;;;26.83;8.27;;;9.60;99.70;;;;;;4986297;28;20356;-85
2023/11/18 01:09:38;;;;;;;28.80;8.27;;;9.60;99.80;;;;;;4986274;28;20058;-84
2023/11/18 01:12:05;;;;;;;23.10;7.18;;;9.60;99.80;;;;;;4986258;28;20027;-84
2023/11/18 01:14:31;;;;;;;17.67;7.70;;;9.60;99.80;;;;;;4986427;28;20027;-84
2023/11/18 01:16:57;;;;;;;21.52;7.35;;;9.60;99.80;;;;;;4986274;28;20031;-85
2023/11/18 01:19:23;;;;;;;22.35;6.65;;;9.80;99.90;;;;;;4970093;28;20058;-85
2023/11/18 01:21:49;;;;;;;27.77;8.23;;;9.70;99.90;;;;;;4987767;28;20082;-84
2023/11/18 01:24:16;;;;;;;21.85;7.78;;;9.60;99.80;;;;;;4986131;28;20035;-84
2023/11/18 01:26:41;;;;;;;27.45;7.90;;;9.90;99.80;;;;;;4987472;28;20038;-84
2023/11/18 01:29:07;;;;;;;23.83;7.72;;;9.60;99.80;;;;;;4986339;28;20399;-85
2023/11/18 01:31:33;;;;;;;17.23;6.97;;;9.60;99.80;;;;;;4985863;28;20063;-86
2023/11/18 01:33:59;;;;;;;17.20;6.97;;;9.60;99.80;;;;;;4986000;28;20034;-85
2023/11/18 01:36:25;;;;;;;23.98;7.10;;;9.70;99.90;;;;;;4986113;28;20027;-86
2023/11/18 01:38:51;;;;;;;23.35;8.05;;;9.60;99.80;;;;;;4985612;28;20022;-85
2023/11/18 01:41:19;;;;;;;26.40;7.25;;;9.60;99.90;;;;;;4985957;28;20354;-86
2023/11/18 01:43:47;;;;;;;26.67;7.22;;;9.80;99.80;;;;;;4986798;28;20106;-83
2023/11/18 01:46:13;;;;;;;29.63;8.10;;;9.60;99.80;;;;;;4987001;28;20050;-87
2023/11/18 01:48:39;;;;;;;28.60;8.40;;;9.70;99.80;;;;;;4985830;28;20035;-86
2023/11/18 01:51:06;;;;;;;18.83;7.20;;;9.60;99.70;;;;;;4985937;28;20054;-86
2023/11/18 01:53:33;;;;;;;22.02;7.53;;;9.60;99.70;;;;;;4986103;28;20019;-87
2023/11/18 01:55:59;;;;;;;22.42;8.15;;;9.60;99.70;;;;;;4986109;28;20027;-86
2023/11/18 01:58:25;;;;;;;23.60;8.30;;;9.50;99.60;;;;;;4985745;28;20113;-86
2023/11/18 02:00:51;;;;;;;21.20;8.30;;;9.60;99.90;;;;;;4985798;28;20023;-85
2023/11/18 02:03:17;;;;;;;17.10;6.90;;;9.40;99.70;;;;;;4985597;28;20114;-87
2023/11/18 02:05:43;;;;;;;18.90;7.65;;;9.50;99.70;;;;;;4985563;28;20034;-88
2023/11/18 02:08:09;;;;;;;18.02;7.40;;;9.50;99.70;;;;;;4985233;28;20022;-87
2023/11/18 02:10:40;;;;;;;21.08;6.95;;;9.50;99.70;;;;;;4985340;28;20034;-87
2023/11/18 02:13:13;;;;;;;16.50;6.97;;;9.50;99.70;;;;;;4985474;28;20031;-87
2023/11/18 02:15:48;;;;;;;17.75;7.15;;;9.50;99.70;;;;;;4985323;28;20035;-87
2023/11/18 02:18:14;;;;;;;;;;;9.50;99.90;;;;;;4985678;28;20023;-85
2023/11/18 02:20:39;;;;;;;;;;;9.70;99.70;;;;;;5018203;28;19960;-86
2023/11/18 02:23:07;;;;;;;18.03;7.00;;;9.40;99.80;;;;;;5017758;28;20255;-85
2023/11/18 02:25:34;;;;;;;19.40;7.20;;;9.40;99.50;;;;;;4985254;28;20034;-85
2023/11/18 02:27:59;;;;;;;16.95;7.38;;;9.40;99.60;;;;;;4985094;28;20097;-86
2023/11/18 02:30:25;;;;;;;13.73;6.15;;;9.40;99.60;;;;;;4985135;28;20080;-85
2023/11/18 02:33:05;;;;;;;22.80;6.75;;;9.40;99.50;;;;;;4984921;28;20043;-85
2023/11/18 02:35:41;;;;;;;17.60;7.00;;;9.40;99.50;;;;;;4984873;28;20038;-85
2023/11/18 02:38:07;;;;;;;13.23;6.03;;;9.40;99.50;;;;;;4985118;28;20042;-85
2023/11/18 02:40:35;;;;;;;14.18;6.82;;;9.40;99.50;;;;;;4985057;28;20066;-85
2023/11/18 02:43:01;;;;;;;16.85;6.80;;;9.50;99.60;;;;;;4985244;28;20031;-86
2023/11/18 02:45:27;;;;;;;15.18;6.35;;;9.30;99.70;;;;;;4985076;28;20042;-87
2023/11/18 02:47:57;;;;;;;16.55;6.50;;;9.60;99.80;;;;;;4985097;28;20027;-85
2023/11/18 02:50:25;;;;;;;9.60;5.53;;;9.30;99.60;;;;;;4984842;28;20061;-86
2023/11/18 02:52:51;;;;;;;16.88;5.75;;;9.30;99.50;;;;;;4984842;28;20035;-85
2023/11/18 02:55:16;;;;;;;14.38;6.15;;;9.40;99.50;;;;;;4984855;28;20033;-85
2023/11/18 02:57:42;;;;;;;15.18;6.07;;;9.30;99.40;;;;;;4984867;28;20062;-85
2023/11/18 03:00:16;;;;;;;15.30;6.00;;;9.50;99.40;;;;;;4984740;28;20019;-86
2023/11/18 03:02:42;;;;;;;13.52;5.78;;;9.30;99.30;;;;;;4984505;28;20061;-85
2023/11/18 03:05:11;;;;;;;12.88;5.50;;;9.40;99.30;;;;;;4984861;28;20031;-87
2023/11/18 03:07:41;;;;;;;15.65;5.95;;;9.30;99.30;;;;;;4984848;28;20049;-86
2023/11/18 03:10:11;;;;;;;14.90;5.97;;;9.30;99.20;;;;;;4984694;28;20034;-86
2023/11/18 03:12:37;;;;;;;17.05;6.05;;;9.30;99.20;;;;;;4984791;28;20034;-86
2023/11/18 03:15:05;;;;;;;12.30;5.50;;;9.30;99.20;;;;;;4984524;28;20057;-86
2023/11/18 03:17:31;;;;;;;18.35;6.03;;;9.30;99.20;;;;;;4984581;28;20026;-88
2023/11/18 03:19:57;;;;;;;17.83;5.70;;;9.20;99.20;;;;;;4987315;28;20057;-85
2023/11/18 03:22:23;;;;;;;16.33;5.80;;;9.40;99.40;;;;;;4988475;28;20089;-86
2023/11/18 03:24:49;;;;;;;16.08;5.53;;;9.20;99.40;;;;;;4988685;28;20208;-85
2023/11/18 03:27:15;;;;;;;14.35;6.07;;;9.20;99.60;;;;;;4988354;28;20039;-87
2023/11/18 03:29:43;;;;;;;14.43;6.25;;;9.20;99.60;;;;;;4988168;28;20054;-87
2023/11/18 03:32:09;;;;;;;14.95;5.70;;;9.10;99.60;;;;;;4988024;28;20031;-87
2023/11/18 03:34:35;;;;;;;16.38;5.78;;;9.10;99.70;;;;;;4989358;28;20026;-91
2023/11/18 03:37:00;;;;;;;11.13;6.30;;;9.10;99.60;;;;;;4972187;28;20066;-85
2023/11/18 03:39:27;;;;;;;13.60;5.93;;;9.40;99.60;;;;;;4988044;28;20093;-86
2023/11/18 03:41:52;;;;;;;17.02;5.85;;;9.10;99.60;;;;;;4988102;28;20042;-85
2023/11/18 03:44:18;;;;;;;13.68;5.97;;;9.50;99.80;;;;;;4988104;28;20030;-86
2023/11/18 03:46:44;;;;;;;18.83;6.68;;;9.50;99.90;;;;;;4971528;28;20110;-88
2023/11/18 03:49:09;;;;;;;16.80;6.22;;;9.20;99.90;;;;;;4988119;28;20289;-88
2023/11/18 03:51:35;;;;;;;14.10;6.40;;;9.40;99.90;;;;;;4971849;28;20055;-88
2023/11/18 03:54:01;;;;;;;11.50;6.00;;;9.20;99.90;;;;;;4987843;28;20051;-88
2023/11/18 03:56:27;;;;;;;16.35;6.53;;;8.70;99.80;;;;;;4988027;28;20041;-88
2023/11/18 03:58:52;;;;;;;10.63;5.57;;;9.10;99.90;;;;;;4987568;28;20023;-84
2023/11/18 04:01:22;;;;;;;15.15;6.10;;;9.30;99.90;;;;;;4987630;28;20034;-87
2023/11/18 04:03:48;;;;;;;17.17;6.45;;;9.50;99.80;;;;;;4971776;28;20038;-87
2023/11/18 04:06:15;;;;;;;10.82;5.75;;;9.20;99.70;;;;;;4987591;28;20134;-87
2023/11/18 04:08:48;;;;;;;13.45;5.85;;;9.50;99.90;;;;;;4987663;28;20448;-86
2023/11/18 04:11:14;;;;;;;12.23;6.05;;;9.10;99.70;;;;;;4987839;28;20125;-87
2023/11/18 04:13:43;;;;;;;14.30;5.78;;;9.20;99.60;;;;;;4987302;28;20026;-87
2023/11/18 04:16:13;;;;;;;9.98;5.80;;;9.00;99.70;;;;;;4987730;28;20023;-86
2023/11/18 04:18:42;;;;;;;12.60;5.95;;;9.00;99.70;;;;;;4986975;28;20107;-87
2023/11/18 04:21:08;;;;;;;14.77;6.47;;;9.10;99.70;;;;;;4987507;28;20074;-87
2023/11/18 04:23:38;;;;;;;9.27;5.65;;;9.00;99.70;;;;;;4987661;28;20031;-87
2023/11/18 04:26:04;;;;;;;15.20;6.10;;;9.00;99.80;;;;;;4987093;28;20054;-87
2023/11/18 04:28:30;;;;;;;14.85;5.72;;;9.00;99.80;;;;;;4987599;28;20027;-87
2023/11/18 04:30:56;;;;;;;13.52;6.20;;;9.00;99.80;;;;;;4987161;28;20037;-86
2023/11/18 04:33:21;;;;;;;16.70;6.28;;;9.00;99.80;;;;;;4987206;28;20029;-87
2023/11/18 04:35:47;;;;;;;13.80;5.55;;;8.90;99.80;;;;;;4987277;28;20026;-87
2023/11/18 04:38:13;;;;;;;13.10;6.38;;;8.90;99.80;;;;;;4987042;28;20050;-87
2023/11/18 04:40:40;;;;;;;14.85;6.80;;;9.00;99.80;;;;;;4988464;28;20043;-86
2023/11/18 04:43:06;;;;;;;13.20;5.70;;;9.00;99.80;;;;;;4988616;28;20023;-86
2023/11/18 04:45:32;;;;;;;13.13;5.90;;;8.80;99.70;;;;;;4986837;28;20486;-86
2023/11/18 04:47:59;;;;;;;13.13;6.00;;;9.00;99.90;;;;;;4988447;28;20031;-87
2023/11/18 04:50:24;;;;;;;10.95;5.53;;;8.80;99.70;;;;;;4986809;28;20035;-87
2023/11/18 04:52:50;;;;;;;11.52;5.57;;;9.50;99.90;;;;;;4986670;28;20089;-87
2023/11/18 04:55:15;;;;;;;12.10;6.10;;;9.20;99.90;;;;;;4986888;28;20042;-87
2023/11/18 04:57:41;;;;;;;13.00;5.53;;;9.40;99.90;;;;;;4970162;28;20031;-87
2023/11/18 05:00:10;;;;;;;12.15;5.35;;;9.30;99.90;;;;;;4986810;28;20038;-87
2023/11/18 05:02:39;;;;;;;12.55;5.68;;;8.80;99.90;;;;;;4988138;28;20086;-87
2023/11/18 05:05:06;;;;;;;11.43;6.43;;;9.10;99.90;;;;;;4986432;28;20460;-86
2023/11/18 05:07:32;;;;;;;25.23;6.80;;;8.80;99.90;;;;;;4986855;28;20209;-87
2023/11/18 05:09:57;;;;;;;10.48;5.95;;;9.10;99.90;;;;;;4986370;28;20108;-87
2023/11/18 05:12:23;;;;;;;15.02;6.55;;;8.80;99.90;;;;;;4986207;28;20027;-86
2023/11/18 05:14:49;;;;;;;16.70;6.25;;;9.20;99.90;;;;;;4986640;28;20019;-87
2023/11/18 05:17:15;;;;;;;13.05;5.60;;;9.10;99.90;;;;;;4987413;28;20042;-87
2023/11/18 05:19:42;;;;;;;13.70;5.63;;;9.40;99.90;;;;;;4986369;28;20026;-87
2023/11/18 05:22:08;;;;;;;14.10;5.32;;;9.20;99.90;;;;;;4986522;28;20130;-86
2023/11/18 05:24:34;;;;;;;11.68;6.03;;;9.20;99.90;;;;;;4986440;28;20110;-87
2023/11/18 05:27:02;;;;;;;12.10;6.03;;;8.90;99.90;;;;;;4986680;28;20039;-86
2023/11/18 05:29:28;;;;;;;11.02;6.07;;;9.10;99.90;;;;;;4985931;28;20035;-87
2023/11/18 05:31:57;;;;;;;8.38;5.55;;;8.70;99.90;;;;;;4969905;28;20178;-86
2023/11/18 05:34:22;;;;;;;12.23;5.45;;;9.20;99.90;;;;;;4985986;28;20031;-87
2023/11/18 05:36:51;;;;;;;13.52;5.47;;;8.80;99.90;;;;;;4985900;28;20110;-87
2023/11/18 05:39:16;;;;;;;10.95;5.45;;;8.70;99.90;;;;;;4986119;28;20053;-87
2023/11/18 05:41:45;;;;;;;13.15;4.55;;;9.00;99.90;;;;;;4985346;28;20027;-87
2023/11/18 05:44:17;;;;;;;6.95;4.95;;;9.20;99.90;;;;;;4985962;28;20027;-88
2023/11/18 05:46:46;;;;;;;11.13;5.22;;;9.00;99.90;;;;;;4986589;28;20049;-87
2023/11/18 05:49:13;;;;;;;12.75;5.10;;;8.80;99.90;;;;;;4987086;28;20037;-87
2023/11/18 05:51:40;;;;;;;11.50;5.45;;;9.10;99.90;;;;;;4985697;28;20027;-87
2023/11/18 05:54:06;;;;;;;11.77;5.40;;;9.10;99.90;;;;;;4987191;28;20031;-87
2023/11/18 05:56:32;;;;;;;8.63;4.80;;;8.60;99.90;;;;;;4986970;28;20118;-87
2023/11/18 05:58:58;;;;;;;10.93;4.75;;;8.60;99.90;;;;;;4985885;28;20082;-87
2023/11/18 06:01:23;;;;;;;10.70;4.97;;;9.10;99.90;;;;;;4985891;28;20114;-87
2023/11/18 06:03:49;;;;;;;9.75;5.22;;;9.00;99.90;;;;;;4985537;28;20050;-88
2023/11/18 06:06:18;;;;;;;6.68;4.57;;;8.80;99.90;;;;;;4987507;28;20038;-87
2023/11/18 06:08:44;;;;;;;12.73;4.60;;;8.80;99.90;;;;;;4987138;28;20027;-87
2023/11/18 06:11:13;;;;;;;8.77;4.82;;;8.80;99.80;;;;;;4985090;28;20041;-86
2023/11/18 06:13:50;;;;;;;7.80;3.80;;;8.60;99.70;;;;;;4985323;28;20034;-86
2023/11/18 06:16:16;;;;;;;11.27;4.63;;;8.50;99.60;;;;;;4970506;28;20475;-88
2023/11/18 06:18:44;;;;;;;7.75;4.45;;;8.80;99.60;;;;;;4985589;28;20034;-87
2023/11/18 06:21:14;;;;;;;11.30;4.35;;;8.50;99.50;;;;;;4985100;28;20030;-88
2023/11/18 06:23:40;;;;;;;7.18;4.40;;;8.50;99.60;;;;;;4985174;28;20317;-88
2023/11/18 06:26:06;;;;;;;8.15;4.22;;;8.50;99.60;;;;;;4985278;28;20046;-87
2023/11/18 06:28:33;;;;;;;7.38;3.85;;;8.50;99.60;;;;;;4985135;28;20035;-88
2023/11/18 06:30:59;;;;;;;7.13;3.97;;;8.50;99.60;;;;;;4984919;28;20407;-86
2023/11/18 06:33:27;;;;;;;6.35;4.00;;;8.70;99.70;;;;;;4985015;28;20034;-86
2023/11/18 06:35:56;;;;;;;7.00;3.90;;;8.50;99.60;;;;;;4986411;28;20047;-86
2023/11/18 06:38:22;;;;;;;10.70;4.20;;;8.40;99.50;;;;;;4984444;28;20026;-86
2023/11/18 06:40:51;;;;;;;7.35;3.72;;;8.40;99.50;;;;;;4984651;28;20484;-88
2023/11/18 06:43:18;;;;;;;7.05;3.45;;;8.40;99.50;;;;;;4965912;28;20046;-86
2023/11/18 06:45:44;;;;;;;5.50;3.13;;;8.40;99.50;;;;;;4962258;28;20030;-85
2023/11/18 06:48:10;;;;;;;8.63;3.95;;;8.30;99.50;;;;;;4959330;28;20064;-88
2023/11/18 06:50:36;;;;;;;6.07;3.17;;;8.30;99.40;;;;;;4982869;28;20102;-87
2023/11/18 06:53:01;;;;;;;5.93;3.20;;;8.50;99.50;;;;;;4982660;28;20105;-88
2023/11/18 06:55:27;;;;;;;10.93;2.95;;;8.50;99.40;;;;;;4995124;28;20114;-87
2023/11/18 06:57:56;;;;;;;4.93;3.05;;;8.30;99.40;;;;;;4977262;28;20035;-87
2023/11/18 07:00:22;;;;;;;4.90;3.10;;;8.30;99.70;;;;;;5014488;28;20031;-86
2023/11/18 07:02:47;;;;;;;6.65;3.30;;;8.30;99.40;;;;;;4999615;28;20035;-90
2023/11/18 07:05:14;;;;;;;5.78;3.35;;;8.20;99.30;;;;;;4981347;28;20027;-86
2023/11/18 07:07:42;;;;;;;6.07;3.00;;;8.20;99.30;;;;;;4963338;28;20184;-88
2023/11/18 07:10:12;;;;;;;5.50;3.20;;;8.30;99.40;;;;;;4996203;28;20026;-88
2023/11/18 07:12:38;;;;;;;10.45;3.45;;;8.20;99.30;;;;;;4961262;28;20035;-86
2023/11/18 07:15:05;;;;;;;5.53;3.03;;;8.20;99.40;;;;;;4981619;28;20046;-88
2023/11/18 07:17:30;;;;;;;6.57;3.08;;;8.30;99.50;;;;;;5006549;28;20524;-90
2023/11/18 07:19:58;;;;;;;8.02;2.92;;;8.30;99.70;;;;;;4996503;28;20050;-89
2023/11/18 07:22:24;;;;;;;10.27;3.58;;;8.50;99.70;;;;;;4975669;28;20027;-90
2023/11/18 07:24:50;;;;;;;6.47;2.83;;;8.40;99.60;;;;;;4989561;28;20057;-90
2023/11/18 07:27:16;;;;;;;6.03;3.25;;;8.70;99.70;;;;;;4990013;28;20106;-91
2023/11/18 07:29:41;;;;;;;17.95;4.55;;;8.50;99.60;;;;;;4978542;28;20035;-87
2023/11/18 07:32:10;;;;;;;14.80;3.80;;;8.30;99.60;;;;;;4984511;28;20066;-90
2023/11/18 07:34:38;;;;;;;9.68;3.70;;;8.30;99.70;;;;;;4966892;28;20113;-86
2023/11/18 07:37:13;;;;;;;9.30;3.90;;;8.40;99.80;;;;;;4969394;28;20038;-93
2023/11/18 07:39:44;;;;;;;29.70;4.57;;;8.60;99.80;;;;;;4963931;28;20095;-87
2023/11/18 07:42:14;;;;;;;23.52;4.60;;;8.90;99.90;;;;;;5007707;28;20033;-85
2023/11/18 07:44:40;;;;;;;21.50;4.40;;;8.60;99.90;;;;;;4979963;28;20031;-89
2023/11/18 07:47:06;;;;;;;29.17;4.65;;;9.00;99.90;;;;;;4964958;28;20042;-87
2023/11/18 07:49:33;;;;;;;14.02;4.00;;;8.90;99.90;;;;;;4980752;28;20041;-87
2023/11/18 07:51:59;;;;;;;16.60;3.92;;;8.50;99.90;;;;;;4990059;28;20031;-88
2023/11/18 07:54:25;;;;;;;18.17;3.78;;;8.50;99.90;;;;;;4990884;28;20111;-88
2023/11/18 07:56:50;;;;;;;56.80;8.63;;;8.70;99.90;;;;;;5007833;28;20026;-85
2023/11/18 07:59:20;;;;;;;37.15;5.78;;;8.60;99.90;;;;;;4962559;28;20057;-90
2023/11/18 08:01:46;;;;;;;30.15;5.28;;;8.60;99.90;;;;;;4971117;28;20039;-87
2023/11/18 08:04:14;;;;;;;45.20;5.20;;;8.60;99.90;;;;;;4985891;28;20059;-88
2023/11/18 08:06:42;;;;;;;26.33;5.47;;;9.00;99.90;;;;;;4971311;28;20042;-89
2023/11/18 08:09:13;;;;;;;29.23;5.70;;;8.70;99.90;;;;;;4985266;28;20027;-87
2023/11/18 08:11:41;;;;;;;41.55;7.00;;;8.70;99.90;;;;;;4989594;28;20042;-88
2023/11/18 08:14:07;;;;;;;55.67;7.45;;;8.70;99.90;;;;;;4948251;28;20058;-86
2023/11/18 08:16:34;;;;;;;58.15;7.18;;;8.40;99.90;;;;;;4963738;28;20099;-86
2023/11/18 08:19:02;;;;;;;67.75;8.50;;;8.90;99.90;;;;;;4962666;28;20023;-86
2023/11/18 08:21:28;;;;;;;81.10;9.90;;;8.70;99.90;;;;;;4989498;28;20026;-86
2023/11/18 08:23:55;;;;;;;95.20;11.38;;;8.70;99.90;;;;;;4992172;28;20034;-86
2023/11/18 08:26:21;;;;;;;73.95;9.95;;;8.80;99.90;;;;;;5011132;28;20038;-88
2023/11/18 08:28:47;;;;;;;101.65;11.55;;;9.00;99.90;;;;;;5008479;28;20364;-88
2023/11/18 08:31:15;;;;;;;84.10;11.13;;;8.90;99.90;;;;;;4995065;28;20043;-87
2023/11/18 08:33:45;;;;;;;108.90;11.48;;;9.00;99.90;;;;;;4981539;28;20106;-88
2023/11/18 08:36:12;;;;;;;105.82;12.35;;;9.10;99.90;;;;;;4983172;28;20026;-90
2023/11/18 08:38:38;;;;;;;129.68;12.82;;;8.90;99.90;;;;;;4995959;28;20031;-90
2023/11/18 08:41:05;;;;;;;116.85;13.70;;;9.00;99.90;;;;;;5000072;28;20026;-88
2023/11/18 08:43:31;;;;;;;110.28;14.55;;;9.10;99.90;;;;;;4999209;28;20022;-86
2023/11/18 08:45:57;;;;;;;150.40;16.88;;;9.10;99.90;;;;;;4963601;28;20070;-87
2023/11/18 08:48:25;;;;;;;126.53;17.27;;;8.90;99.90;;;;;;4963237;28;20027;-85
2023/11/18 08:50:51;;;;;;;178.80;18.42;;;8.90;99.90;;;;;;4947585;28;20042;-86
2023/11/18 08:53:17;;;;;;;173.57;19.33;;;9.40;99.90;;;;;;4974409;28;20046;-90
2023/11/18 08:55:56;;;;;;;177.05;20.17;;;9.60;99.90;;;;;;4959721;28;20172;-89
2023/11/18 08:58:22;;;;;;;183.45;20.23;;;9.50;99.90;;;;;;4974619;28;20041;-87
2023/11/18 09:00:48;;;;;;;182.40;19.75;;;9.20;99.90;;;;;;4989658;28;20038;-85
2023/11/18 09:03:17;;;;;;;212.73;22.33;;;9.40;99.90;;;;;;5005235;28;20035;-87
2023/11/18 09:06:04;;;;;;;236.32;24.65;;;9.50;99.90;;;;;;5008891;28;20035;-87
2023/11/18 09:08:38;;;;;;;230.70;22.73;;;9.50;99.90;;;;;;5003128;28;20050;-89
2023/11/18 09:11:07;;;;;;;223.93;24.75;;;9.60;99.90;;;;;;4978419;28;20042;-87
2023/11/18 09:13:34;;;;;;;209.63;23.45;;;9.70;99.90;;;;;;4962312;28;20028;-87
2023/11/18 09:16:02;;;;;;;287.88;29.67;;;9.70;99.90;;;;;;4959501;28;20034;-91
2023/11/18 09:18:29;;;;;;;313.55;33.42;;;9.70;99.90;;;;;;4988505;28;20019;-89
2023/11/18 09:20:56;;;;;;;290.48;30.23;;;10.20;99.90;;;;;;4962439;28;20226;-92
2023/11/18 09:23:25;;;;;;;302.70;30.00;;;10.10;99.90;;;;;;4978251;28;20478;-89
2023/11/18 09:25:56;;;;;;;262.15;30.67;;;9.90;99.90;;;;;;4962745;28;20110;-90
2023/11/18 09:28:28;;;;;;;295.98;30.02;;;10.10;99.90;;;;;;4976374;28;20022;-92
2023/11/18 09:30:54;;;;;;;310.95;32.70;;;10.00;99.90;;;;;;4992165;28;20070;-85
2023/11/18 09:33:28;;;;;;;343.88;35.53;;;10.10;99.90;;;;;;4982642;28;20034;-88
2023/11/18 09:36:00;;;;;;;388.43;37.87;;;10.20;99.90;;;;;;5007184;28;20085;-88
2023/11/18 09:38:29;;;;;;;319.63;34.75;;;10.30;99.90;;;;;;4983215;28;20030;-88
2023/11/18 09:41:02;;;;;;;331.65;33.78;;;10.40;99.90;;;;;;4993252;28;20085;-90
2023/11/18 09:43:46;;;;;;;354.27;36.97;;;10.40;99.90;;;;;;4982279;28;20034;-85
2023/11/18 09:46:24;;;;;;;376.85;40.30;;;10.40;99.90;;;;;;5002776;28;20027;-89
2023/11/18 09:49:01;;;;;;;351.10;38.78;;;10.50;99.90;;;;;;4962740;28;20040;-91
2023/11/18 09:51:32;;;;;;;393.98;41.10;;;10.70;99.90;;;;;;4981735;28;20027;-93
2023/11/18 09:54:06;;;;;;;402.48;41.72;;;11.00;99.90;;;;;;4970698;28;20026;-89
2023/11/18 09:56:45;;;;;;;396.13;40.55;;;10.70;99.90;;;;;;4964426;28;20029;-91
2023/11/18 09:59:19;;;;;;;399.55;41.13;;;10.40;99.90;;;;;;4979857;28;20023;-90
2023/11/18 10:01:48;;;;;;;446.35;49.35;;;10.80;99.90;;;;;;4991993;28;20486;-90
2023/11/18 10:04:17;;;;;;;489.70;47.75;;;10.90;99.90;;;;;;4993181;28;20117;-91
2023/11/18 10:06:44;;;;;;;492.27;48.13;;;11.10;99.90;;;;;;4957247;28;20051;-87
2023/11/18 10:09:16;;;;;;;439.60;44.97;;;10.90;99.90;;;;;;4990658;28;20031;-87
2023/11/18 10:11:49;;;;;;;365.38;40.92;;;11.10;99.90;;;;;;4992903;28;20038;-89
2023/11/18 10:14:18;;;;;;;387.83;41.25;;;11.60;99.90;;;;;;4990262;28;20031;-92
2023/11/18 10:16:46;;;;;;;357.52;37.58;;;11.20;99.90;;;;;;4990808;28;20042;-92
2023/11/18 10:19:14;;;;;;;339.85;37.55;;;11.10;99.90;;;;;;5007546;28;20023;-89
2023/11/18 10:21:40;;;;;;;407.80;40.97;;;11.10;99.90;;;;;;5006337;28;20035;-88
2023/11/18 10:24:19;;;;;;;355.00;38.45;;;11.20;99.90;;;;;;4960445;28;20035;-92
2023/11/18 10:26:57;;;;;;;386.88;40.38;;;11.40;99.90;;;;;;4979851;28;20113;-89
2023/11/18 10:29:30;;;;;;;451.50;43.35;;;11.30;99.90;;;;;;4990983;28;20053;-88
2023/11/18 10:32:14;;;;;;;355.02;37.58;;;11.30;99.90;;;;;;4960825;28;20167;-88
2023/11/18 10:34:42;;;;;;;359.95;37.70;;;11.20;99.90;;;;;;5004548;28;20305;-87
2023/11/18 10:37:10;;;;;;;362.45;38.17;;;11.50;99.90;;;;;;4987343;28;20039;-89
2023/11/18 10:39:36;;;;;;;384.67;39.28;;;11.30;99.90;;;;;;4958152;28;20055;-90
2023/11/18 10:42:03;;;;;;;369.80;38.83;;;11.30;99.90;;;;;;4979487;28;20459;-89
2023/11/18 10:44:31;;;;;;;355.98;37.63;;;11.40;99.90;;;;;;4972333;28;20071;-90
2023/11/18 10:46:58;;;;;;;213.98;25.05;;;11.60;99.90;;;;;;5004945;28;20083;-93
2023/11/18 10:49:36;;;;;;;243.77;24.05;;;11.90;99.90;;;;;;4989247;28;20127;-91
2023/11/18 10:52:06;;;;;;;240.80;25.40;;;11.90;99.90;;;;;;5008253;28;20436;-92
2023/11/18 10:54:49;;;;;;;317.42;35.20;;;11.40;99.60;;;;;;4977357;28;20106;-92
2023/11/18 10:57:18;;;;;;;337.77;36.22;;;11.50;99.80;;;;;;4976220;28;20031;-90
2023/11/18 11:00:04;;;;;;;348.38;36.00;;;11.50;99.90;;;;;;4989362;28;20030;-95
2023/11/18 11:02:39;;;;;;;;;;;11.60;99.90;;;;;;4987890;28;20026;-93
2023/11/18 11:05:06;;;;;;;337.33;34.17;;;11.50;99.90;;;;;;4985531;28;19945;-91
2023/11/18 11:07:32;;;;;;;379.48;34.72;;;11.70;99.90;;;;;;5006499;28;20030;-90
2023/11/18 11:10:04;;;;;;;313.58;33.30;;;11.60;99.90;;;;;;4944781;28;20129;-90
2023/11/18 11:12:33;;;;;;;308.60;33.08;;;11.80;99.90;;;;;;4967433;28;20022;-91
2023/11/18 11:15:04;;;;;;;322.42;31.67;;;11.80;99.90;;;;;;4958764;28;20134;-90
2023/11/18 11:17:30;;;;;;;241.15;28.67;;;11.90;99.90;;;;;;4989958;28;20040;-91
2023/11/18 11:20:23;;;;;;;281.83;31.77;;;11.90;99.90;;;;;;4957714;28;20051;-90
2023/11/18 11:22:58;;;;;;;298.83;31.15;;;11.90;99.50;;;;;;4984544;28;20041;-89
2023/11/18 11:25:29;;;;;;;269.48;29.98;;;12.00;99.20;;;;;;4979823;28;20058;-88
2023/11/18 11:28:15;;;;;;;300.30;31.80;;;12.40;99.30;;;;;;4993415;28;20023;-91
2023/11/18 11:30:55;;;;;;;255.00;29.17;;;12.30;99.30;;;;;;4977546;28;20130;-94
2023/11/18 11:34:00;;;;;;;302.15;30.70;;;12.20;99.20;;;;;;4988501;28;20062;-92
2023/11/18 11:36:42;;;;;;;339.83;31.98;;;12.00;99.00;;;;;;4944104;28;20207;-92
2023/11/18 11:39:14;;;;;;;275.90;31.75;;;12.30;99.20;;;;;;4995239;28;20108;-92
2023/11/18 11:41:50;;;;;;;295.00;29.77;;;12.20;99.10;;;;;;5008270;28;20035;-95
2023/11/18 11:44:19;;;;;;;314.35;34.13;;;12.40;99.10;;;;;;5005465;28;20114;-91
2023/11/18 11:46:45;;;;;;;346.15;38.17;;;12.30;99.10;;;;;;4972750;28;20201;-93
2023/11/18 11:49:27;;;;;;;324.33;35.58;;;12.30;99.00;;;;;;4965377;28;20122;-91
2023/11/18 11:52:04;;;;;;;343.20;33.30;;;12.40;99.00;;;;;;5004261;28;20146;-92
2023/11/18 11:54:39;;;;;;;294.17;35.22;;;12.30;98.50;;;;;;4996262;28;20019;-92
2023/11/18 11:57:06;;;;;;;462.38;46.38;;;12.40;98.40;;;;;;4963857;28;20118;-94
2023/11/18 11:59:37;;;;;;;387.00;38.85;;;12.40;98.50;;;;;;4990762;28;20043;-88
2023/11/18 12:02:07;;;;;;;426.67;43.63;;;12.70;98.40;;;;;;4990374;28;20049;-87
2023/11/18 12:04:37;;;;;;;397.10;42.38;;;12.30;98.40;;;;;;4980851;28;20133;-91
2023/11/18 12:07:04;;;;;;;431.13;43.58;;;12.60;98.40;;;;;;4995187;28;20150;-91
2023/11/18 12:09:37;;;;;;;368.08;39.35;;;12.30;98.10;;;;;;4971932;28;20029;-89
2023/11/18 12:12:13;;;;;;;335.45;38.15;;;12.30;97.90;;;;;;4966760;28;20155;-92
2023/11/18 12:15:14;;;;;;;395.42;38.47;;;12.50;97.70;;;;;;4999842;28;20046;-93
2023/11/18 12:18:00;;;;;;;340.33;38.17;;;12.20;97.60;;;;;;5010343;28;20041;-93
2023/11/18 12:21:23;;;;;;;319.77;35.83;;;12.70;97.60;;;;;;4983186;28;20023;-92
2023/11/18 12:24:42;;;;;;;357.85;36.17;;;12.60;97.60;;;;;;4974654;28;20047;-92
2023/11/18 12:27:13;;;;;;;332.45;35.75;;;12.50;97.20;;;;;;4977875;28;20066;-91
2023/11/18 12:29:45;;;;;;;331.55;33.97;;;12.50;97.30;;;;;;4995089;28;20110;-92
2023/11/18 12:32:16;;;;;;;299.95;32.42;;;12.50;97.20;;;;;;4994076;28;20035;-91
2023/11/18 12:34:53;;;;;;;353.27;36.80;;;12.60;97.10;;;;;;4979397;28;20031;-91
2023/11/18 12:37:27;;;;;;;373.63;37.83;;;12.80;97.40;;;;;;4980486;28;20050;-93
2023/11/18 12:40:13;;;;;;;299.27;32.95;;;12.60;97.20;;;;;;4979941;28;20041;-88
2023/11/18 12:42:59;;;;;;;275.63;31.03;;;12.50;97.10;;;;;;4999684;28;20043;-90
2023/11/18 12:45:44;;;;;;;335.92;39.22;;;12.70;97.10;;;;;;4964891;28;20309;-90
2023/11/18 12:48:14;;;;;;;343.63;39.05;;;12.70;97.00;;;;;;4983454;28;20031;-90
2023/11/18 12:50:41;;;;;;;417.20;40.25;;;12.60;97.10;;;;;;4979817;28;20034;-90